sensor_id;sensor_type;location;lat;lon;timestamp;pressure;altitude;pressure_sealevel;temperature;humidity
40490;BME280;26196;52.302;10.572;2023-11-22T00:02:08;101691.81;;;12.58;49.56
40490;BME280;26196;52.302;10.572;2023-11-22T00:06:08;101625.84;;;12.23;49.66
40490;BME280;26196;52.302;10.572;2023-11-22T00:10:09;101694.50;;;12.53;49.43
40490;BME280;26196;52.302;10.572;2023-11-22T00:14:09;101694.69;;;12.42;49.47
40490;BME280;26196;52.302;10.572;2023-11-22T00:18:10;101621.94;;;11.95;49.36
40490;BME280;26196;52.302;10.572;2023-11-22T00:22:11;101710.50;;;12.38;49.37
40490;BME280;26196;52.302;10.572;2023-11-22T00:26:14;101648.97;;;11.98;49.34
40490;BME280;26196;52.302;10.572;2023-11-22T00:30:15;101656.00;;;11.96;49.24
40490;BME280;26196;52.302;10.572;2023-11-22T00:34:15;101626.63;;;11.70;49.40
40490;BME280;26196;52.302;10.572;2023-11-22T00:38:16;101631.69;;;11.82;49.20
40490;BME280;26196;52.302;10.572;2023-11-22T00:42:16;101640.38;;;11.86;49.48
40490;BME280;26196;52.302;10.572;2023-11-22T00:46:20;101669.22;;;11.92;49.04
40490;BME280;26196;52.302;10.572;2023-11-22T00:50:20;101649.22;;;11.80;49.07
40490;BME280;26196;52.302;10.572;2023-11-22T00:54:21;101720.34;;;12.23;49.55
40490;BME280;26196;52.302;10.572;2023-11-22T00:58:22;101717.84;;;12.14;49.29
40490;BME280;26196;52.302;10.572;2023-11-22T01:02:22;101731.78;;;12.21;49.53
40490;BME280;26196;52.302;10.572;2023-11-22T01:06:24;101724.75;;;12.21;49.19
40490;BME280;26196;52.302;10.572;2023-11-22T01:10:24;101711.69;;;12.17;49.42
40490;BME280;26196;52.302;10.572;2023-11-22T01:14:25;101654.50;;;11.75;49.18
40490;BME280;26196;52.302;10.572;2023-11-22T01:18:26;101710.88;;;12.13;49.14
40490;BME280;26196;52.302;10.572;2023-11-22T01:22:27;101669.38;;;11.76;49.24
40490;BME280;26196;52.302;10.572;2023-11-22T01:26:27;101737.13;;;12.13;49.58
40490;BME280;26196;52.302;10.572;2023-11-22T01:30:28;101737.22;;;12.07;49.55
40490;BME280;26196;52.302;10.572;2023-11-22T01:34:28;101737.34;;;11.96;49.29
40490;BME280;26196;52.302;10.572;2023-11-22T01:38:29;101763.47;;;12.04;49.29
40490;BME280;26196;52.302;10.572;2023-11-22T01:42:30;101693.16;;;11.63;49.05
40490;BME280;26196;52.302;10.572;2023-11-22T01:46:30;101734.88;;;11.84;49.17
40490;BME280;26196;52.302;10.572;2023-11-22T01:50:30;101769.69;;;11.98;49.15
40490;BME280;26196;52.302;10.572;2023-11-22T01:54:31;101708.09;;;11.56;48.62
40490;BME280;26196;52.302;10.572;2023-11-22T01:58:32;101767.19;;;11.89;48.76
40490;BME280;26196;52.302;10.572;2023-11-22T02:02:36;101740.25;;;11.73;49.47
40490;BME280;26196;52.302;10.572;2023-11-22T02:31:20;101783.91;;;11.77;48.39
40490;BME280;26196;52.302;10.572;2023-11-22T02:35:20;101767.34;;;11.74;48.61
40490;BME280;26196;52.302;10.572;2023-11-22T02:39:25;101771.81;;;11.64;48.07
40490;BME280;26196;52.302;10.572;2023-11-22T02:43:30;101710.19;;;11.26;48.59
40490;BME280;26196;52.302;10.572;2023-11-22T02:47:31;101730.16;;;11.36;48.39
40490;BME280;26196;52.302;10.572;2023-11-22T02:51:31;101779.72;;;11.61;48.41
40490;BME280;26196;52.302;10.572;2023-11-22T02:55:32;101722.41;;;11.27;48.75
40490;BME280;26196;52.302;10.572;2023-11-22T02:59:32;101785.06;;;11.52;48.35
40490;BME280;26196;52.302;10.572;2023-11-22T03:03:33;101791.19;;;11.51;47.79
40490;BME280;26196;52.302;10.572;2023-11-22T03:07:33;101735.66;;;11.10;47.86
40490;BME280;26196;52.302;10.572;2023-11-22T03:11:34;101741.84;;;11.05;48.08
40490;BME280;26196;52.302;10.572;2023-11-22T03:15:35;101814.00;;;11.43;48.11
40490;BME280;26196;52.302;10.572;2023-11-22T03:19:35;101755.84;;;11.04;48.10
40490;BME280;26196;52.302;10.572;2023-11-22T03:23:35;101832.31;;;11.47;48.12
40490;BME280;26196;52.302;10.572;2023-11-22T03:27:37;101833.19;;;11.46;48.48
40490;BME280;26196;52.302;10.572;2023-11-22T03:31:37;101821.09;;;11.33;47.80
40490;BME280;26196;52.302;10.572;2023-11-22T03:35:39;101789.00;;;11.05;47.47
40490;BME280;26196;52.302;10.572;2023-11-22T03:39:39;101782.09;;;10.94;47.21
40490;BME280;26196;52.302;10.572;2023-11-22T03:43:40;101850.84;;;11.29;46.94
40490;BME280;26196;52.302;10.572;2023-11-22T03:47:40;101859.50;;;11.34;47.34
40490;BME280;26196;52.302;10.572;2023-11-22T03:51:42;101874.41;;;11.32;47.22
40490;BME280;26196;52.302;10.572;2023-11-22T03:55:42;101859.56;;;11.28;47.06
40490;BME280;26196;52.302;10.572;2023-11-22T03:59:43;101877.09;;;11.24;47.30
40490;BME280;26196;52.302;10.572;2023-11-22T04:03:43;101868.34;;;11.22;46.80
40490;BME280;26196;52.302;10.572;2023-11-22T04:07:43;101850.97;;;11.10;46.67
40490;BME280;26196;52.302;10.572;2023-11-22T04:11:44;101813.66;;;10.79;46.62
40490;BME280;26196;52.302;10.572;2023-11-22T04:15:44;101803.22;;;10.73;46.59
40490;BME280;26196;52.302;10.572;2023-11-22T04:19:45;101864.13;;;11.06;47.18
40490;BME280;26196;52.302;10.572;2023-11-22T04:23:45;101874.63;;;11.00;46.53
40490;BME280;26196;52.302;10.572;2023-11-22T04:27:45;101896.41;;;11.08;46.71
40490;BME280;26196;52.302;10.572;2023-11-22T04:31:46;101900.84;;;11.01;46.93
40490;BME280;26196;52.302;10.572;2023-11-22T04:35:51;101904.25;;;11.08;46.63
40490;BME280;26196;52.302;10.572;2023-11-22T04:39:51;101838.22;;;10.63;46.68
40490;BME280;26196;52.302;10.572;2023-11-22T04:43:52;101907.84;;;10.98;46.94
40490;BME280;26196;52.302;10.572;2023-11-22T04:47:53;101914.75;;;11.08;46.71
40490;BME280;26196;52.302;10.572;2023-11-22T04:51:54;101920.00;;;11.05;46.81
40490;BME280;26196;52.302;10.572;2023-11-22T04:55:55;101940.13;;;11.06;46.83
40490;BME280;26196;52.302;10.572;2023-11-22T04:59:55;101949.75;;;11.01;46.75
40490;BME280;26196;52.302;10.572;2023-11-22T05:03:55;101862.72;;;10.54;47.21
40490;BME280;26196;52.302;10.572;2023-11-22T05:07:56;101945.41;;;10.95;46.85
40490;BME280;26196;52.302;10.572;2023-11-22T05:11:56;101936.69;;;10.91;46.70
40490;BME280;26196;52.302;10.572;2023-11-22T05:15:56;101845.28;;;10.51;47.04
40490;BME280;26196;52.302;10.572;2023-11-22T05:19:57;101861.81;;;10.57;47.05
40490;BME280;26196;52.302;10.572;2023-11-22T05:23:57;101916.63;;;10.84;47.13
40490;BME280;26196;52.302;10.572;2023-11-22T05:27:58;101881.00;;;10.56;47.04
40490;BME280;26196;52.302;10.572;2023-11-22T05:31:59;101955.00;;;10.94;46.69
40490;BME280;26196;52.302;10.572;2023-11-22T05:36:00;101895.81;;;10.63;47.53
40490;BME280;26196;52.302;10.572;2023-11-22T05:40:00;101890.50;;;10.77;47.83
40490;BME280;26196;52.302;10.572;2023-11-22T05:44:01;101912.25;;;10.89;47.90
40490;BME280;26196;52.302;10.572;2023-11-22T05:48:01;101960.03;;;11.28;48.46
40490;BME280;26196;52.302;10.572;2023-11-22T05:52:02;101884.19;;;11.08;48.98
40490;BME280;26196;52.302;10.572;2023-11-22T05:56:02;101891.13;;;11.12;48.88
40490;BME280;26196;52.302;10.572;2023-11-22T06:00:04;101959.88;;;11.53;49.25
40490;BME280;26196;52.302;10.572;2023-11-22T06:04:04;101959.81;;;11.59;49.25
40490;BME280;26196;52.302;10.572;2023-11-22T06:08:05;101913.81;;;11.20;48.95
40490;BME280;26196;52.302;10.572;2023-11-22T06:12:05;101917.34;;;11.12;48.61
40490;BME280;26196;52.302;10.572;2023-11-22T06:16:06;101939.03;;;11.31;49.02
40490;BME280;26196;52.302;10.572;2023-11-22T06:20:07;102015.75;;;11.61;48.85
40490;BME280;26196;52.302;10.572;2023-11-22T06:24:09;101993.19;;;11.38;48.90
40490;BME280;26196;52.302;10.572;2023-11-22T06:28:11;102018.47;;;11.44;48.68
40490;BME280;26196;52.302;10.572;2023-11-22T06:32:11;101958.50;;;10.97;47.24
40490;BME280;26196;52.302;10.572;2023-11-22T06:36:12;102019.53;;;11.17;47.37
40490;BME280;26196;52.302;10.572;2023-11-22T06:40:14;102023.06;;;11.10;47.24
40490;BME280;26196;52.302;10.572;2023-11-22T06:44:14;102039.59;;;11.23;46.60
40490;BME280;26196;52.302;10.572;2023-11-22T06:48:15;102042.22;;;11.21;46.27
40490;BME280;26196;52.302;10.572;2023-11-22T06:52:15;102053.59;;;11.15;46.31
40490;BME280;26196;52.302;10.572;2023-11-22T06:56:17;102043.13;;;11.14;46.99
40490;BME280;26196;52.302;10.572;2023-11-22T07:00:18;101913.44;;;10.30;46.44
40490;BME280;26196;52.302;10.572;2023-11-22T07:04:19;102023.94;;;11.09;47.19
40490;BME280;26196;52.302;10.572;2023-11-22T07:08:19;101846.34;;;9.95;46.88
40490;BME280;26196;52.302;10.572;2023-11-22T07:12:20;102031.84;;;10.97;46.57
40490;BME280;26196;52.302;10.572;2023-11-22T07:16:20;102036.22;;;11.01;46.95
40490;BME280;26196;52.302;10.572;2023-11-22T07:20:20;102017.03;;;10.95;47.15
40490;BME280;26196;52.302;10.572;2023-11-22T07:24:21;101962.13;;;10.63;47.34
40490;BME280;26196;52.302;10.572;2023-11-22T07:28:21;101966.50;;;10.63;46.85
40490;BME280;26196;52.302;10.572;2023-11-22T07:32:21;101934.31;;;10.44;46.81
40490;BME280;26196;52.302;10.572;2023-11-22T07:36:22;101937.81;;;10.41;46.67
40490;BME280;26196;52.302;10.572;2023-11-22T07:40:22;102007.47;;;10.76;46.78
40490;BME280;26196;52.302;10.572;2023-11-22T07:44:23;101941.31;;;10.40;46.91
40490;BME280;26196;52.302;10.572;2023-11-22T07:48:27;101946.53;;;10.42;46.44
40490;BME280;26196;52.302;10.572;2023-11-22T07:52:28;101914.31;;;10.27;46.64
40490;BME280;26196;52.302;10.572;2023-11-22T07:56:30;102009.25;;;10.77;46.29
40490;BME280;26196;52.302;10.572;2023-11-22T08:00:33;101961.38;;;10.41;46.52
40490;BME280;26196;52.302;10.572;2023-11-22T08:04:42;101950.06;;;10.30;46.92
40490;BME280;26196;52.302;10.572;2023-11-22T08:08:45;101951.78;;;10.40;46.53
40490;BME280;26196;52.302;10.572;2023-11-22T08:12:47;102001.41;;;10.68;46.63
40490;BME280;26196;52.302;10.572;2023-11-22T08:16:48;101928.22;;;10.23;46.53
40490;BME280;26196;52.302;10.572;2023-11-22T08:20:48;101998.84;;;10.59;47.05
40490;BME280;26196;52.302;10.572;2023-11-22T08:24:50;102020.63;;;10.62;47.20
40490;BME280;26196;52.302;10.572;2023-11-22T08:28:50;101965.75;;;10.18;47.46
40490;BME280;26196;52.302;10.572;2023-11-22T08:32:50;102023.31;;;10.36;47.14
40490;BME280;26196;52.302;10.572;2023-11-22T08:36:54;102000.66;;;10.12;47.64
40490;BME280;26196;52.302;10.572;2023-11-22T08:40:54;102040.78;;;10.28;47.83
40490;BME280;26196;52.302;10.572;2023-11-22T08:44:58;102087.88;;;10.49;47.71
40490;BME280;26196;52.302;10.572;2023-11-22T08:48:58;102093.09;;;10.49;48.27
40490;BME280;26196;52.302;10.572;2023-11-22T08:52:58;102086.16;;;10.45;48.16
40490;BME280;26196;52.302;10.572;2023-11-22T08:56:59;102092.25;;;10.46;47.85
40490;BME280;26196;52.302;10.572;2023-11-22T09:01:00;102073.91;;;10.44;48.10
40490;BME280;26196;52.302;10.572;2023-11-22T09:05:00;102081.75;;;10.47;48.07
40490;BME280;26196;52.302;10.572;2023-11-22T09:09:01;102084.38;;;10.32;48.24
40490;BME280;26196;52.302;10.572;2023-11-22T09:13:01;102089.63;;;10.44;48.09
40490;BME280;26196;52.302;10.572;2023-11-22T09:17:01;102071.31;;;10.35;48.71
40490;BME280;26196;52.302;10.572;2023-11-22T09:21:05;102068.69;;;10.32;48.70
40490;BME280;26196;52.302;10.572;2023-11-22T09:25:06;102002.41;;;10.02;48.26
40490;BME280;26196;52.302;10.572;2023-11-22T09:29:11;101960.56;;;9.84;48.85
40490;BME280;26196;52.302;10.572;2023-11-22T09:33:15;102016.34;;;10.14;48.57
40490;BME280;26196;52.302;10.572;2023-11-22T09:37:16;102019.84;;;10.08;49.13
40490;BME280;26196;52.302;10.572;2023-11-22T09:41:16;102066.94;;;10.37;48.95
40490;BME280;26196;52.302;10.572;2023-11-22T09:45:19;102077.41;;;10.31;49.44
40490;BME280;26196;52.302;10.572;2023-11-22T09:49:24;102056.50;;;10.28;49.33
40490;BME280;26196;52.302;10.572;2023-11-22T09:53:31;102087.88;;;10.37;49.59
40490;BME280;26196;52.302;10.572;2023-11-22T09:57:33;102032.03;;;10.23;49.11
40490;BME280;26196;52.302;10.572;2023-11-22T10:01:34;102055.59;;;10.23;49.13
40490;BME280;26196;52.302;10.572;2023-11-22T10:05:36;102067.84;;;10.30;49.64
40490;BME280;26196;52.302;10.572;2023-11-22T10:09:37;102072.19;;;10.31;49.55
40490;BME280;26196;52.302;10.572;2023-11-22T10:13:38;102080.03;;;10.31;49.25
40490;BME280;26196;52.302;10.572;2023-11-22T10:17:39;102082.63;;;10.22;49.58
40490;BME280;26196;52.302;10.572;2023-11-22T10:21:39;102090.47;;;10.20;49.47
40490;BME280;26196;52.302;10.572;2023-11-22T10:25:48;102025.97;;;9.81;49.51
40490;BME280;26196;52.302;10.572;2023-11-22T10:29:51;102082.63;;;10.25;49.35
40490;BME280;26196;52.302;10.572;2023-11-22T10:33:53;102025.97;;;9.85;49.85
40490;BME280;26196;52.302;10.572;2023-11-22T10:37:53;102114.91;;;10.25;49.38
40490;BME280;26196;52.302;10.572;2023-11-22T10:41:54;102091.38;;;10.19;49.22
40490;BME280;26196;52.302;10.572;2023-11-22T10:45:55;102039.00;;;9.72;49.90
40490;BME280;26196;52.302;10.572;2023-11-22T10:49:56;102046.00;;;9.79;49.85
40490;BME280;26196;52.302;10.572;2023-11-22T10:53:58;102097.47;;;10.15;49.66
40490;BME280;26196;52.302;10.572;2023-11-22T10:58:04;102035.53;;;9.79;49.91
40490;BME280;26196;52.302;10.572;2023-11-22T11:02:11;102023.34;;;9.79;50.21
40490;BME280;26196;52.302;10.572;2023-11-22T11:06:19;102096.59;;;10.21;49.90
40490;BME280;26196;52.302;10.572;2023-11-22T11:10:21;102092.22;;;10.23;50.49
40490;BME280;26196;52.302;10.572;2023-11-22T11:14:22;102078.25;;;10.24;50.55
40490;BME280;26196;52.302;10.572;2023-11-22T11:18:24;101986.75;;;9.81;50.31
40490;BME280;26196;52.302;10.572;2023-11-22T11:22:25;102028.56;;;10.12;50.22
40490;BME280;26196;52.302;10.572;2023-11-22T11:26:25;102038.13;;;10.22;50.61
40490;BME280;26196;52.302;10.572;2023-11-22T11:34:32;101971.03;;;9.89;50.77
40490;BME280;26196;52.302;10.572;2023-11-22T11:38:38;102037.28;;;10.34;50.22
40490;BME280;26196;52.302;10.572;2023-11-22T11:42:40;101978.00;;;10.00;50.15
40490;BME280;26196;52.302;10.572;2023-11-22T11:46:43;102005.00;;;10.21;50.50
40490;BME280;26196;52.302;10.572;2023-11-22T11:50:46;101987.56;;;10.17;50.84
40490;BME280;26196;52.302;10.572;2023-11-22T11:54:46;101929.19;;;9.90;50.88
40490;BME280;26196;52.302;10.572;2023-11-22T11:58:48;101980.56;;;10.25;51.10
40490;BME280;26196;52.302;10.572;2023-11-22T12:02:51;101966.59;;;10.24;50.87
40490;BME280;26196;52.302;10.572;2023-11-22T12:06:52;101952.69;;;10.15;51.43
40490;BME280;26196;52.302;10.572;2023-11-22T12:10:56;101908.19;;;10.13;51.26
40490;BME280;26196;52.302;10.572;2023-11-22T12:14:56;101931.72;;;10.36;51.71
40490;BME280;26196;52.302;10.572;2023-11-22T12:18:57;101895.09;;;10.32;51.11
40490;BME280;26196;52.302;10.572;2023-11-22T12:22:58;101896.81;;;10.36;51.18
40490;BME280;26196;52.302;10.572;2023-11-22T12:27:00;101889.00;;;10.28;51.45
40490;BME280;26196;52.302;10.572;2023-11-22T12:31:11;101919.50;;;10.37;51.56
40490;BME280;26196;52.302;10.572;2023-11-22T12:35:12;101895.06;;;10.27;51.49
40490;BME280;26196;52.302;10.572;2023-11-22T12:39:12;101826.31;;;9.90;51.66
40490;BME280;26196;52.302;10.572;2023-11-22T12:43:20;101883.75;;;10.25;51.54
40490;BME280;26196;52.302;10.572;2023-11-22T12:47:33;101814.09;;;9.99;51.70
40490;BME280;26196;52.302;10.572;2023-11-22T12:51:35;101865.47;;;10.13;51.76
40490;BME280;26196;52.302;10.572;2023-11-22T12:55:36;101870.72;;;10.05;51.52
40490;BME280;26196;52.302;10.572;2023-11-22T12:59:36;101901.19;;;10.24;51.81
40490;BME280;26196;52.302;10.572;2023-11-22T13:03:37;101918.66;;;10.21;51.54
40490;BME280;26196;52.302;10.572;2023-11-22T13:07:38;101859.44;;;9.94;51.84
40490;BME280;26196;52.302;10.572;2023-11-22T13:11:38;101912.53;;;10.25;51.88
40490;BME280;26196;52.302;10.572;2023-11-22T13:15:38;101858.50;;;10.12;51.65
40490;BME280;26196;52.302;10.572;2023-11-22T13:19:40;101901.19;;;10.32;51.91
40490;BME280;26196;52.302;10.572;2023-11-22T13:23:41;101783.63;;;9.86;51.86
40490;BME280;26196;52.302;10.572;2023-11-22T13:27:41;101851.47;;;10.31;51.54
40490;BME280;26196;52.302;10.572;2023-11-22T13:31:41;101840.13;;;10.36;51.69
40490;BME280;26196;52.302;10.572;2023-11-22T13:35:42;101794.78;;;10.19;51.63
40490;BME280;26196;52.302;10.572;2023-11-22T13:39:44;101806.03;;;10.42;52.29
40490;BME280;26196;52.302;10.572;2023-11-22T13:43:44;101800.84;;;10.41;52.44
40490;BME280;26196;52.302;10.572;2023-11-22T13:47:48;101762.50;;;10.21;52.23
40490;BME280;26196;52.302;10.572;2023-11-22T13:51:48;101732.09;;;10.02;52.28
40490;BME280;26196;52.302;10.572;2023-11-22T13:55:49;101833.03;;;10.50;52.28
40490;BME280;26196;52.302;10.572;2023-11-22T13:59:54;101779.13;;;10.16;52.28
40490;BME280;26196;52.302;10.572;2023-11-22T14:03:54;101769.56;;;10.05;52.09
40490;BME280;26196;52.302;10.572;2023-11-22T14:07:56;101869.69;;;10.52;51.97
40490;BME280;26196;52.302;10.572;2023-11-22T14:11:57;101901.06;;;10.60;51.83
40490;BME280;26196;52.302;10.572;2023-11-22T14:15:58;101901.94;;;10.66;51.96
40490;BME280;26196;52.302;10.572;2023-11-22T14:19:59;101892.44;;;10.45;52.63
40490;BME280;26196;52.302;10.572;2023-11-22T14:23:59;101934.22;;;10.61;52.95
40490;BME280;26196;52.302;10.572;2023-11-22T14:27:59;101924.63;;;10.64;52.63
40490;BME280;26196;52.302;10.572;2023-11-22T14:32:00;101887.22;;;10.35;52.59
40490;BME280;26196;52.302;10.572;2023-11-22T14:36:00;101869.78;;;10.29;52.41
40490;BME280;26196;52.302;10.572;2023-11-22T14:40:01;101860.22;;;10.19;51.95
40490;BME280;26196;52.302;10.572;2023-11-22T14:44:04;101908.09;;;10.56;52.01
40490;BME280;26196;52.302;10.572;2023-11-22T14:48:05;101871.50;;;10.39;51.78
40490;BME280;26196;52.302;10.572;2023-11-22T14:52:07;101840.16;;;10.21;51.60
40490;BME280;26196;52.302;10.572;2023-11-22T14:56:10;101911.50;;;10.72;51.44
40490;BME280;26196;52.302;10.572;2023-11-22T15:00:11;101851.44;;;10.41;52.20
40490;BME280;26196;52.302;10.572;2023-11-22T15:04:14;101895.78;;;10.70;52.13
40490;BME280;26196;52.302;10.572;2023-11-22T15:08:15;101829.59;;;10.45;52.53
40490;BME280;26196;52.302;10.572;2023-11-22T15:12:16;101878.28;;;10.76;52.94
40490;BME280;26196;52.302;10.572;2023-11-22T15:16:16;101884.41;;;10.75;52.43
40490;BME280;26196;52.302;10.572;2023-11-22T15:20:19;101816.53;;;10.39;52.86
40490;BME280;26196;52.302;10.572;2023-11-22T15:24:20;101855.66;;;10.67;52.72
40490;BME280;26196;52.302;10.572;2023-11-22T15:28:20;101852.13;;;10.74;52.03
40490;BME280;26196;52.302;10.572;2023-11-22T15:32:23;101846.84;;;10.76;52.52
40490;BME280;26196;52.302;10.572;2023-11-22T15:36:23;101825.97;;;10.65;52.09
40490;BME280;26196;52.302;10.572;2023-11-22T15:40:25;101848.59;;;10.77;52.39
40490;BME280;26196;52.302;10.572;2023-11-22T15:44:25;101792.09;;;10.42;51.89
40490;BME280;26196;52.302;10.572;2023-11-22T15:48:26;101775.56;;;10.26;52.08
40490;BME280;26196;52.302;10.572;2023-11-22T15:52:26;101768.59;;;10.22;51.67
40490;BME280;26196;52.302;10.572;2023-11-22T15:56:28;101763.38;;;10.22;52.11
40490;BME280;26196;52.302;10.572;2023-11-22T16:00:28;101810.31;;;10.57;52.23
40490;BME280;26196;52.302;10.572;2023-11-22T16:04:29;101806.81;;;10.58;51.93
40490;BME280;26196;52.302;10.572;2023-11-22T16:08:30;101793.78;;;10.47;52.09
40490;BME280;26196;52.302;10.572;2023-11-22T16:12:30;101770.31;;;10.37;52.44
40490;BME280;26196;52.302;10.572;2023-11-22T16:16:32;101741.63;;;10.17;52.55
40490;BME280;26196;52.302;10.572;2023-11-22T16:20:32;101807.75;;;10.49;52.14
40490;BME280;26196;52.302;10.572;2023-11-22T16:24:33;101740.78;;;10.12;51.89
40490;BME280;26196;52.302;10.572;2023-11-22T16:28:35;101814.72;;;10.54;51.90
40490;BME280;26196;52.302;10.572;2023-11-22T16:32:37;101803.38;;;10.51;51.90
40490;BME280;26196;52.302;10.572;2023-11-22T16:36:37;101743.34;;;10.18;51.26
40490;BME280;26196;52.302;10.572;2023-11-22T16:40:38;101810.31;;;10.56;52.18
40490;BME280;26196;52.302;10.572;2023-11-22T16:44:38;101785.09;;;10.44;51.74
40490;BME280;26196;52.302;10.572;2023-11-22T16:48:42;101717.16;;;10.25;52.47
40490;BME280;26196;52.302;10.572;2023-11-22T16:52:43;101687.56;;;10.13;52.58
40490;BME280;26196;52.302;10.572;2023-11-22T16:56:43;101737.13;;;10.43;51.88
40490;BME280;26196;52.302;10.572;2023-11-22T17:00:44;101744.91;;;10.52;52.09
40490;BME280;26196;52.302;10.572;2023-11-22T17:04:46;101727.50;;;10.44;51.98
40490;BME280;26196;52.302;10.572;2023-11-22T17:08:48;101735.38;;;10.42;51.73
40490;BME280;26196;52.302;10.572;2023-11-22T17:12:49;101747.56;;;10.46;51.68
40490;BME280;26196;52.302;10.572;2023-11-22T17:16:49;101664.06;;;10.03;51.76
40490;BME280;26196;52.302;10.572;2023-11-22T17:20:50;101653.59;;;10.03;51.64
40490;BME280;26196;52.302;10.572;2023-11-22T17:24:50;101659.72;;;10.02;51.61
40490;BME280;26196;52.302;10.572;2023-11-22T17:28:51;101649.31;;;9.95;52.08
40490;BME280;26196;52.302;10.572;2023-11-22T17:32:52;101707.47;;;10.41;52.16
40490;BME280;26196;52.302;10.572;2023-11-22T17:36:53;101695.25;;;10.42;52.69
40490;BME280;26196;52.302;10.572;2023-11-22T17:40:53;101636.94;;;10.18;52.08
40490;BME280;26196;52.302;10.572;2023-11-22T17:44:54;101659.53;;;10.38;52.27
40490;BME280;26196;52.302;10.572;2023-11-22T17:48:54;101649.09;;;10.33;52.22
40490;BME280;26196;52.302;10.572;2023-11-22T17:52:56;101649.06;;;10.38;52.87
40490;BME280;26196;52.302;10.572;2023-11-22T17:56:57;101579.56;;;9.95;52.33
40490;BME280;26196;52.302;10.572;2023-11-22T18:00:57;101589.16;;;9.93;52.44
40490;BME280;26196;52.302;10.572;2023-11-22T18:04:58;101596.13;;;9.99;52.63
40490;BME280;26196;52.302;10.572;2023-11-22T18:08:58;101625.50;;;10.36;52.92
40490;BME280;26196;52.302;10.572;2023-11-22T18:12:58;101648.13;;;10.43;52.82
40490;BME280;26196;52.302;10.572;2023-11-22T18:16:59;101653.38;;;10.42;52.32
40490;BME280;26196;52.302;10.572;2023-11-22T18:20:59;101599.50;;;10.10;53.13
40490;BME280;26196;52.302;10.572;2023-11-22T18:25:00;101637.69;;;10.40;53.14
40490;BME280;26196;52.302;10.572;2023-11-22T18:29:00;101614.16;;;10.36;53.55
40490;BME280;26196;52.302;10.572;2023-11-22T18:33:00;101615.00;;;10.39;52.97
40490;BME280;26196;52.302;10.572;2023-11-22T18:37:01;101553.34;;;10.04;52.95
40490;BME280;26196;52.302;10.572;2023-11-22T18:41:01;101536.84;;;9.96;53.43
40490;BME280;26196;52.302;10.572;2023-11-22T18:45:03;101532.47;;;9.95;53.53
40490;BME280;26196;52.302;10.572;2023-11-22T18:49:04;101547.19;;;10.08;53.54
40490;BME280;26196;52.302;10.572;2023-11-22T18:53:05;101581.94;;;10.31;53.98
40490;BME280;26196;52.302;10.572;2023-11-22T18:57:06;101583.59;;;10.39;53.41
40490;BME280;26196;52.302;10.572;2023-11-22T19:01:06;101549.63;;;10.27;53.38
40490;BME280;26196;52.302;10.572;2023-11-22T19:05:07;101508.06;;;9.99;53.30
40490;BME280;26196;52.302;10.572;2023-11-22T19:09:07;101550.56;;;10.23;53.84
40490;BME280;26196;52.302;10.572;2023-11-22T19:13:11;101574.94;;;10.33;54.01
40490;BME280;26196;52.302;10.572;2023-11-22T19:17:12;101521.13;;;9.99;53.78
40490;BME280;26196;52.302;10.572;2023-11-22T19:21:19;101576.63;;;10.37;54.00
40490;BME280;26196;52.302;10.572;2023-11-22T19:25:19;101559.25;;;10.31;54.02
40490;BME280;26196;52.302;10.572;2023-11-22T19:29:20;101557.50;;;10.33;54.00
40490;BME280;26196;52.302;10.572;2023-11-22T19:33:20;101568.75;;;10.41;54.15
40490;BME280;26196;52.302;10.572;2023-11-22T19:37:20;101480.25;;;9.89;54.18
40490;BME280;26196;52.302;10.572;2023-11-22T19:41:22;101564.38;;;10.43;54.61
40490;BME280;26196;52.302;10.572;2023-11-22T19:45:23;101555.66;;;10.41;54.93
40490;BME280;26196;52.302;10.572;2023-11-22T19:49:23;101558.28;;;10.43;55.27
40490;BME280;26196;52.302;10.572;2023-11-22T19:53:23;101465.31;;;10.02;54.65
40490;BME280;26196;52.302;10.572;2023-11-22T19:57:24;101544.28;;;10.44;55.10
40490;BME280;26196;52.302;10.572;2023-11-22T20:01:24;101518.19;;;10.35;54.58
40490;BME280;26196;52.302;10.572;2023-11-22T20:05:25;101397.63;;;9.67;54.65
40490;BME280;26196;52.302;10.572;2023-11-22T20:09:25;101494.69;;;10.33;55.12
40490;BME280;26196;52.302;10.572;2023-11-22T20:13:25;101510.28;;;10.44;55.37
40490;BME280;26196;52.302;10.572;2023-11-22T20:17:26;101415.72;;;9.91;55.38
40490;BME280;26196;52.302;10.572;2023-11-22T20:21:26;101500.56;;;10.52;54.74
40490;BME280;26196;52.302;10.572;2023-11-22T20:25:27;101495.34;;;10.54;55.72
40490;BME280;26196;52.302;10.572;2023-11-22T20:29:27;101473.59;;;10.48;54.72
40490;BME280;26196;52.302;10.572;2023-11-22T20:33:27;101418.00;;;10.22;55.14
40490;BME280;26196;52.302;10.572;2023-11-22T20:37:28;101403.22;;;10.19;54.90
40490;BME280;26196;52.302;10.572;2023-11-22T20:41:28;101367.59;;;10.07;56.06
40490;BME280;26196;52.302;10.572;2023-11-22T20:45:29;101410.97;;;10.30;55.11
40490;BME280;26196;52.302;10.572;2023-11-22T20:49:29;101381.50;;;10.13;54.81
40490;BME280;26196;52.302;10.572;2023-11-22T20:53:31;101434.38;;;10.44;55.14
40490;BME280;26196;52.302;10.572;2023-11-22T20:57:31;101457.78;;;10.55;55.27
40490;BME280;26196;52.302;10.572;2023-11-22T21:01:34;101374.53;;;10.12;55.03
40490;BME280;26196;52.302;10.572;2023-11-22T21:05:34;101351.06;;;10.04;54.70
40490;BME280;26196;52.302;10.572;2023-11-22T21:09:34;101419.50;;;10.46;55.31
40490;BME280;26196;52.302;10.572;2023-11-22T21:13:37;101345.81;;;10.07;55.50